createdAt,value
2023-11-26T00:01:33.066Z,3
2023-11-26T00:06:33.218Z,3
2023-11-26T00:11:33.077Z,3
2023-11-26T00:16:33.234Z,3
2023-11-26T00:21:33.044Z,4.9
2023-11-26T00:26:33.265Z,3.3
2023-11-26T00:31:33.052Z,3.8
2023-11-26T00:36:33.267Z,3.8
2023-11-26T00:41:33.046Z,4.7
2023-11-26T00:46:33.288Z,4.3
2023-11-26T00:51:33.078Z,3.9
2023-11-26T00:56:33.227Z,3.9
2023-11-26T01:01:33.158Z,4
2023-11-26T01:06:33.278Z,4
2023-11-26T01:11:33.087Z,4.4
2023-11-26T01:16:33.281Z,4.6
2023-11-26T01:21:33.064Z,3.3
2023-11-26T01:26:33.362Z,3.7
2023-11-26T01:36:33.304Z,3.8
2023-11-26T01:41:33.084Z,3.2
2023-11-26T01:46:33.291Z,3.5
2023-11-26T01:51:33.110Z,2.9
2023-11-26T01:56:33.398Z,3.5
2023-11-26T02:01:33.187Z,3.3
2023-11-26T02:06:33.335Z,3.3
2023-11-26T02:11:33.111Z,3
2023-11-26T02:16:33.366Z,3.3
2023-11-26T02:21:33.124Z,3.6
2023-11-26T02:26:33.359Z,3.3
2023-11-26T02:31:33.152Z,3.7
2023-11-26T02:36:33.315Z,3.7
2023-11-26T02:41:33.139Z,3.5
2023-11-26T02:46:33.371Z,3.2
2023-11-26T02:51:33.156Z,3.6
2023-11-26T02:56:33.390Z,4.3
2023-11-26T03:01:33.191Z,4.1
2023-11-26T03:06:33.359Z,4.1
2023-11-26T03:11:33.196Z,3.2
2023-11-26T03:16:33.369Z,3
2023-11-26T03:21:33.163Z,3.3
2023-11-26T03:26:33.413Z,4.2
2023-11-26T03:36:33.401Z,5.2
2023-11-26T03:41:33.190Z,4.5
2023-11-26T03:46:33.410Z,5
2023-11-26T03:51:33.192Z,4.3
2023-11-26T03:56:33.510Z,4.9
2023-11-26T04:01:33.240Z,3.9
2023-11-26T04:06:33.414Z,3.9
2023-11-26T04:11:33.207Z,5.1
2023-11-26T04:16:33.421Z,4.9
2023-11-26T04:21:33.209Z,4.7
2023-11-26T04:26:45.080Z,5.5
2023-11-26T04:31:33.202Z,5.1
2023-11-26T04:36:33.419Z,5.1
2023-11-26T04:41:33.350Z,4.6
2023-11-26T04:46:33.458Z,4.4
2023-11-26T04:51:33.225Z,4.1
2023-11-26T04:56:33.475Z,4.7
2023-11-26T05:01:33.286Z,4.5
2023-11-26T05:06:33.435Z,4.5
2023-11-26T05:11:33.259Z,5.6
2023-11-26T05:16:33.539Z,4.8
2023-11-26T05:21:33.241Z,5.6
2023-11-26T05:26:33.604Z,5.8
2023-11-26T05:31:33.290Z,6.8
2023-11-26T05:36:33.478Z,6.8
2023-11-26T05:41:33.289Z,6.6
2023-11-26T05:46:33.508Z,5.8
2023-11-26T05:51:33.317Z,6.5
2023-11-26T05:56:33.561Z,6.6
2023-11-26T06:01:33.378Z,7.1
2023-11-26T06:06:33.519Z,7.1
2023-11-26T06:11:33.286Z,5.3
2023-11-26T06:16:33.620Z,5.6
2023-11-26T06:21:33.317Z,7.1
2023-11-26T06:26:33.627Z,6
2023-11-26T06:31:33.350Z,7.3
2023-11-26T06:36:33.581Z,7.3
2023-11-26T06:41:33.327Z,7.5
2023-11-26T06:46:33.678Z,6.3
2023-11-26T06:51:33.357Z,7
2023-11-26T06:56:33.635Z,7
2023-11-26T07:01:33.386Z,7.6
2023-11-26T07:06:33.607Z,7.6
2023-11-26T07:11:33.360Z,6.9
2023-11-26T07:16:33.581Z,5.4
2023-11-26T07:21:33.410Z,6.7
2023-11-26T07:26:33.666Z,6.5
2023-11-26T07:31:33.414Z,6.8
2023-11-26T07:36:33.831Z,6.8
2023-11-26T07:41:33.438Z,6.5
2023-11-26T07:46:33.712Z,5.7
2023-11-26T07:51:33.468Z,6
2023-11-26T07:56:33.671Z,6.3
2023-11-26T08:01:33.382Z,6.8
2023-11-26T08:06:33.695Z,6.8
2023-11-26T08:11:33.413Z,11.1
2023-11-26T08:16:33.610Z,8.8
2023-11-26T08:21:33.450Z,7.7
2023-11-26T08:26:33.725Z,7.5
2023-11-26T08:31:33.431Z,8.4
2023-11-26T08:36:33.678Z,8.4
2023-11-26T08:41:33.418Z,8.2
2023-11-26T08:46:33.472Z,8.6
2023-11-26T08:51:33.509Z,7.3
2023-11-26T08:56:33.662Z,8.1
2023-11-26T09:01:33.433Z,6.2
2023-11-26T09:06:33.720Z,6.2
2023-11-26T09:11:33.401Z,6.7
2023-11-26T09:16:33.711Z,6.1
2023-11-26T09:21:33.461Z,7.5
2023-11-26T09:26:33.626Z,6.7
2023-11-26T09:31:33.418Z,7
2023-11-26T09:36:33.511Z,7
2023-11-26T09:41:33.446Z,7.1
2023-11-26T09:51:33.481Z,6.9
2023-11-26T09:56:33.671Z,6.8
2023-11-26T10:01:33.529Z,8
2023-11-26T10:06:33.737Z,8
2023-11-26T10:11:33.450Z,6.9
2023-11-26T10:16:34.050Z,6.9
2023-11-26T10:21:33.676Z,7.2
2023-11-26T10:26:33.688Z,6.9
2023-11-26T10:31:33.485Z,5.1
2023-11-26T10:36:33.722Z,5.1
2023-11-26T10:41:34.746Z,6
2023-11-26T10:46:33.785Z,6.4
2023-11-26T10:51:33.524Z,6.5
2023-11-26T10:56:33.663Z,6.7
2023-11-26T11:01:33.630Z,8.2
2023-11-26T11:06:33.795Z,8.2
2023-11-26T11:11:33.478Z,8.6
2023-11-26T11:16:33.755Z,9.4
2023-11-26T11:21:33.567Z,9.1
2023-11-26T11:26:33.781Z,8.5
2023-11-26T11:31:33.529Z,7.4
2023-11-26T11:41:33.504Z,10.1
2023-11-26T11:46:33.764Z,9.5
2023-11-26T11:51:33.529Z,7.8
2023-11-26T11:56:33.761Z,11.9
2023-11-26T12:01:33.555Z,9.7
2023-11-26T12:06:33.802Z,9.7
2023-11-26T12:11:33.511Z,9.1
2023-11-26T12:21:33.551Z,8.1
2023-11-26T12:26:33.802Z,8
2023-11-26T12:31:33.583Z,8.6
2023-11-26T12:36:33.814Z,8.6
2023-11-26T12:41:33.529Z,8.6
2023-11-26T12:46:33.817Z,7.7
2023-11-26T12:51:33.558Z,8
2023-11-26T12:56:33.786Z,7.7
2023-11-26T13:01:33.584Z,7.7
2023-11-26T13:06:33.788Z,8
2023-11-26T13:11:33.575Z,8
2023-11-26T13:16:33.850Z,8.5
2023-11-26T13:21:33.579Z,7.6
2023-11-26T13:26:33.825Z,6.1
2023-11-26T13:31:33.575Z,6.1
2023-11-26T13:36:33.775Z,7.1
2023-11-26T13:41:33.583Z,7.5
2023-11-26T13:46:33.832Z,7.4
2023-11-26T13:51:33.616Z,8.2
2023-11-26T13:56:33.878Z,5.6
2023-11-26T14:01:33.738Z,5.6
2023-11-26T14:06:33.972Z,6.5
2023-11-26T14:11:33.624Z,6.5
2023-11-26T14:16:33.936Z,6.7
2023-11-26T14:21:33.643Z,6
2023-11-26T14:26:33.907Z,7
2023-11-26T14:31:33.628Z,7
2023-11-26T14:36:34.343Z,6.5
2023-11-26T14:41:33.618Z,7.2
2023-11-26T14:46:33.934Z,6.7
2023-11-26T14:51:33.695Z,6.5
2023-11-26T14:56:33.910Z,6.3
2023-11-26T15:01:33.748Z,6.3
2023-11-26T15:06:33.978Z,5.5
2023-11-26T15:11:33.648Z,7.4
2023-11-26T15:16:34.060Z,7.9
2023-11-26T15:21:33.739Z,7.7
2023-11-26T15:26:33.901Z,7.9
2023-11-26T15:31:33.667Z,7.9
2023-11-26T15:36:34.002Z,8.6
2023-11-26T15:41:33.653Z,7.9
2023-11-26T15:46:33.988Z,7.1
2023-11-26T15:51:33.720Z,7.2
2023-11-26T15:56:33.940Z,7.2
2023-11-26T16:01:33.837Z,7.2
2023-11-26T16:06:33.997Z,8
2023-11-26T16:11:33.684Z,7.5
2023-11-26T16:16:33.926Z,8
2023-11-26T16:21:33.731Z,7.3
2023-11-26T16:26:33.993Z,7.5
2023-11-26T16:31:33.759Z,7.5
2023-11-26T16:36:34.042Z,8.7
2023-11-26T16:41:33.712Z,9.9
2023-11-26T16:46:34.059Z,8.2
2023-11-26T16:51:33.793Z,25.8
2023-11-26T16:56:33.909Z,12.7
2023-11-26T17:01:33.767Z,12.7
2023-11-26T17:06:34.075Z,9.9
2023-11-26T17:11:33.680Z,8.5
2023-11-26T17:16:34.091Z,7.1
2023-11-26T17:21:33.729Z,7.6
2023-11-26T17:26:33.946Z,8.1
2023-11-26T17:31:33.737Z,8.1
2023-11-26T17:36:33.960Z,8.1
2023-11-26T17:41:33.746Z,8.2
2023-11-26T17:46:34.066Z,7.8
2023-11-26T17:51:33.817Z,9
2023-11-26T17:56:33.916Z,9.3
2023-11-26T18:01:34.063Z,9.3
2023-11-26T18:06:34.066Z,7.4
2023-11-26T18:11:33.759Z,9
2023-11-26T18:21:33.766Z,8.5
2023-11-26T18:26:34.037Z,8.2
2023-11-26T18:31:33.870Z,8.2
2023-11-26T18:36:33.935Z,12.4
2023-11-26T18:41:33.772Z,11.8
2023-11-26T18:46:33.974Z,13.5
2023-11-26T18:51:33.873Z,12.8
2023-11-26T18:56:34.103Z,10.4
2023-11-26T19:01:33.927Z,10.4
2023-11-26T19:06:34.160Z,8.3
2023-11-26T19:11:34.191Z,8.4
2023-11-26T19:16:34.117Z,8.6
2023-11-26T19:21:33.810Z,9.1
2023-11-26T19:26:34.058Z,9.4
2023-11-26T19:31:33.827Z,9.4
2023-11-26T19:36:34.114Z,7.9
2023-11-26T19:41:33.808Z,8.4
2023-11-26T19:46:34.067Z,9.5
2023-11-26T19:51:33.862Z,8.8
2023-11-26T20:01:33.946Z,8.2
2023-11-26T20:06:34.130Z,8.4
2023-11-26T20:11:33.874Z,6.3
2023-11-26T20:16:34.151Z,9.4
2023-11-26T20:21:33.928Z,9.8
2023-11-26T20:26:34.114Z,11.7
2023-11-26T20:31:33.927Z,11.7
2023-11-26T20:36:34.077Z,11.5
2023-11-26T20:41:34.182Z,9.9
2023-11-26T20:46:34.158Z,10.6
2023-11-26T20:51:33.936Z,10
2023-11-26T20:56:34.101Z,9.8
2023-11-26T21:01:33.959Z,9.8
2023-11-26T21:06:34.081Z,8.7
2023-11-26T21:11:33.900Z,11.9
2023-11-26T21:16:34.204Z,12.6
2023-11-26T21:26:34.181Z,11.3
2023-11-26T21:31:33.933Z,11.3
2023-11-26T21:36:34.195Z,11.9
2023-11-26T21:41:33.946Z,10.3
2023-11-26T21:46:39.239Z,10.9
2023-11-26T21:51:33.964Z,12.3
2023-11-26T21:56:34.216Z,12.4
2023-11-26T22:01:34.046Z,12.4
2023-11-26T22:06:34.234Z,13.7
2023-11-26T22:11:33.962Z,15.9
2023-11-26T22:16:34.269Z,17.4
2023-11-26T22:21:34.016Z,16.8
2023-11-26T22:26:34.203Z,17.4
2023-11-26T22:31:34.185Z,17.4
2023-11-26T22:36:34.198Z,14.9
2023-11-26T22:41:33.983Z,16.8
2023-11-26T22:46:34.243Z,15.8
2023-11-26T22:51:33.974Z,15.5
2023-11-26T22:56:34.165Z,15.6
2023-11-26T23:01:34.177Z,15.6
2023-11-26T23:11:33.974Z,16.4
2023-11-26T23:16:34.175Z,15.1
2023-11-26T23:21:33.984Z,17.6
2023-11-26T23:26:34.182Z,17.8
2023-11-26T23:31:33.963Z,17.8
2023-11-26T23:36:34.210Z,15.9
2023-11-26T23:46:34.276Z,18.3
2023-11-26T23:51:33.992Z,20.2
2023-11-26T23:56:34.175Z,18
